createdAt,value
2023-05-12T00:00:49.741Z,8.05
2023-05-12T00:05:51.256Z,8.65
2023-05-12T00:10:52.772Z,10.70
2023-05-12T00:15:56.647Z,10.10
2023-05-12T00:20:58.338Z,9.10
2023-05-12T00:25:59.828Z,10.52
2023-05-12T00:31:03.016Z,9.63
2023-05-12T00:36:04.830Z,9.93
2023-05-12T00:41:06.266Z,9.57
2023-05-12T00:46:07.844Z,9.15
2023-05-12T00:51:09.878Z,9.60
2023-05-12T00:56:12.051Z,12.07
2023-05-12T01:01:13.630Z,10.45
2023-05-12T01:06:29.840Z,10.35
2023-05-12T01:11:31.296Z,12.27
2023-05-12T01:16:41.289Z,10.50
2023-05-12T01:21:42.709Z,9.93
2023-05-12T01:26:44.317Z,11.32
2023-05-12T01:31:46.218Z,10.73
2023-05-12T01:36:47.706Z,12.40
2023-05-12T01:41:49.111Z,10.10
2023-05-12T01:46:50.569Z,7.47
2023-05-12T01:51:52.082Z,12.98
2023-05-12T01:56:53.498Z,7.90
2023-05-12T02:01:54.962Z,9.43
2023-05-12T02:06:56.406Z,9.43
2023-05-12T02:11:58.050Z,9.82
2023-05-12T02:16:59.536Z,12.77
2023-05-12T02:22:00.980Z,13.68
2023-05-12T02:27:02.399Z,9.82
2023-05-12T02:32:04.890Z,10.43
2023-05-12T02:37:06.640Z,10.68
2023-05-12T02:42:08.049Z,10.73
2023-05-12T02:47:09.464Z,10.70
2023-05-12T02:52:10.959Z,11.40
2023-05-12T02:57:12.465Z,8.00
2023-05-12T03:02:14.035Z,9.65
2023-05-12T03:07:15.845Z,10.77
2023-05-12T03:12:17.622Z,9.00
2023-05-12T03:17:19.218Z,9.00
2023-05-12T03:22:20.846Z,11.90
2023-05-12T03:27:22.284Z,9.50
2023-05-12T03:32:23.823Z,11.90
2023-05-12T03:37:25.331Z,8.70
2023-05-12T03:42:26.859Z,12.30
2023-05-12T03:47:29.350Z,9.65
2023-05-12T03:52:30.938Z,11.93
2023-05-12T03:57:32.742Z,11.32
2023-05-12T04:02:34.263Z,9.10
2023-05-12T04:07:35.936Z,8.52
2023-05-12T04:12:37.367Z,9.52
2023-05-12T04:17:39.365Z,13.52
2023-05-12T04:22:40.975Z,10.55
2023-05-12T04:27:42.439Z,10.23
2023-05-12T04:32:43.951Z,16.02
2023-05-12T04:37:45.380Z,10.88
2023-05-12T04:42:47.213Z,10.40
2023-05-12T04:47:48.740Z,9.93
2023-05-12T04:52:50.262Z,9.73
2023-05-12T04:57:51.753Z,10.40
2023-05-12T05:02:53.395Z,11.68
2023-05-12T05:07:55.928Z,11.65
2023-05-12T05:12:57.362Z,9.98
2023-05-12T05:18:01.778Z,10.00
2023-05-12T05:23:03.548Z,7.90
2023-05-12T05:28:05.634Z,13.30
2023-05-12T05:33:07.392Z,9.85
2023-05-12T05:38:08.848Z,11.40
2023-05-12T05:43:10.454Z,11.75
2023-05-12T05:48:12.221Z,8.80
2023-05-12T05:53:13.706Z,8.35
2023-05-12T05:58:15.652Z,11.82
2023-05-12T06:03:17.307Z,11.57
2023-05-12T06:08:19.040Z,12.65
2023-05-12T06:13:20.497Z,11.43
2023-05-12T06:18:23.289Z,8.80
2023-05-12T06:23:24.886Z,9.32
2023-05-12T06:28:26.316Z,12.93
2023-05-12T06:33:27.780Z,10.13
2023-05-12T06:38:29.228Z,10.40
2023-05-12T06:43:30.662Z,11.40
2023-05-12T06:48:32.107Z,11.07
2023-05-12T06:53:37.433Z,10.75
2023-05-12T06:58:38.886Z,10.65
2023-05-12T07:03:40.664Z,12.07
2023-05-12T07:08:42.146Z,10.98
2023-05-12T07:13:43.572Z,12.15
2023-05-12T07:18:45.453Z,11.75
2023-05-12T07:23:46.914Z,8.98
2023-05-12T07:28:48.336Z,11.23
2023-05-12T07:33:49.764Z,13.10
2023-05-12T07:38:51.262Z,12.80
2023-05-12T07:43:52.736Z,9.60
2023-05-12T07:48:54.164Z,7.68
2023-05-12T07:53:56.488Z,9.40
2023-05-12T07:58:57.963Z,8.80
2023-05-12T08:03:59.581Z,9.65
2023-05-12T08:09:01.470Z,10.68
2023-05-12T08:14:03.655Z,9.07
2023-05-12T08:19:05.144Z,9.63
2023-05-12T08:24:06.654Z,6.75
2023-05-12T08:29:09.705Z,8.32
2023-05-12T08:34:11.418Z,10.07
2023-05-12T08:39:13.136Z,9.48
2023-05-12T08:44:15.892Z,10.07
2023-05-12T08:49:22.804Z,7.32
2023-05-12T08:54:27.450Z,9.00
2023-05-12T08:59:29.208Z,9.60
2023-05-12T09:04:30.628Z,8.88
2023-05-12T09:09:34.343Z,5.97
2023-05-12T09:14:37.598Z,6.32
2023-05-12T09:19:39.691Z,6.55
2023-05-12T09:24:41.166Z,6.97
2023-05-12T09:29:59.151Z,6.13
2023-05-12T09:35:11.285Z,7.00
2023-05-12T09:40:13.779Z,7.50
2023-05-12T09:45:15.502Z,7.32
2023-05-12T09:50:17.364Z,9.65
2023-05-12T09:55:18.959Z,9.85
2023-05-12T10:00:34.379Z,6.05
2023-05-12T10:05:58.260Z,6.15
2023-05-12T10:11:01.937Z,6.18
2023-05-12T10:16:04.282Z,8.63
2023-05-12T10:21:08.664Z,6.03
2023-05-12T10:26:11.487Z,4.65
2023-05-12T10:31:13.870Z,7.18
2023-05-12T10:36:19.358Z,8.23
2023-05-12T10:41:35.160Z,7.57
2023-05-12T10:46:37.309Z,7.13
2023-05-12T10:51:44.679Z,6.82
2023-05-12T10:56:46.635Z,6.40
2023-05-12T11:02:01.795Z,5.53
2023-05-12T11:07:06.213Z,4.60
2023-05-12T11:12:09.214Z,5.10
2023-05-12T11:17:11.514Z,6.25
2023-05-12T11:22:13.426Z,5.88
2023-05-12T11:27:17.072Z,5.57
2023-05-12T11:32:18.526Z,7.25
2023-05-12T11:37:21.415Z,7.35
2023-05-12T11:42:25.697Z,5.47
2023-05-12T11:47:27.484Z,6.22
2023-05-12T11:52:29.065Z,4.85
2023-05-12T11:57:33.500Z,7.88
2023-05-12T12:02:37.516Z,5.50
2023-05-12T12:07:39.103Z,5.95
2023-05-12T12:12:41.713Z,5.22
2023-05-12T12:17:43.202Z,3.67
2023-05-12T12:22:44.941Z,4.43
2023-05-12T12:27:46.623Z,7.10
2023-05-12T12:32:48.905Z,5.25
2023-05-12T12:37:52.148Z,6.28
2023-05-12T12:42:54.080Z,4.72
2023-05-12T12:47:55.547Z,4.78
2023-05-12T12:52:57.101Z,4.53
2023-05-12T12:57:58.516Z,6.82
2023-05-12T13:03:00.558Z,4.75
2023-05-12T13:08:02.221Z,5.60
2023-05-12T13:13:03.660Z,8.73
2023-05-12T13:18:05.166Z,4.70
2023-05-12T13:23:06.720Z,4.28
2023-05-12T13:28:08.381Z,4.65
2023-05-12T13:33:10.994Z,6.22
2023-05-12T13:38:12.585Z,5.40
2023-05-12T13:43:14.663Z,7.65
2023-05-12T13:48:16.115Z,5.97
2023-05-12T13:53:17.723Z,5.15
2023-05-12T13:58:21.475Z,4.72
2023-05-12T14:03:23.157Z,3.83
2023-05-12T14:08:24.696Z,6.25
2023-05-12T14:13:26.301Z,7.40
2023-05-12T14:18:27.868Z,6.75
2023-05-12T14:23:29.342Z,4.72
2023-05-12T14:28:30.839Z,3.85
2023-05-12T14:33:32.647Z,4.40
2023-05-12T14:38:34.236Z,5.35
2023-05-12T14:43:35.826Z,5.60
2023-05-12T14:48:37.549Z,4.82
2023-05-12T14:53:39.043Z,6.45
2023-05-12T14:58:40.654Z,3.70
2023-05-12T15:03:42.184Z,2.92
2023-05-12T15:08:43.815Z,4.13
2023-05-12T15:13:45.235Z,3.63
2023-05-12T15:18:46.804Z,4.30
2023-05-12T15:23:48.462Z,3.58
2023-05-12T15:28:49.865Z,5.25
2023-05-12T15:33:51.371Z,3.67
2023-05-12T15:38:52.862Z,4.45
2023-05-12T15:43:54.334Z,6.80
2023-05-12T15:48:55.872Z,6.35
2023-05-12T15:53:57.508Z,5.78
2023-05-12T15:58:58.990Z,3.30
2023-05-12T16:04:00.735Z,5.57
2023-05-12T16:09:02.265Z,5.93
2023-05-12T16:14:03.817Z,6.20
2023-05-12T16:19:05.321Z,6.13
2023-05-12T16:24:08.892Z,5.55
2023-05-12T16:29:10.575Z,5.43
2023-05-12T16:34:12.107Z,7.63
2023-05-12T16:39:13.823Z,4.90
2023-05-12T16:44:15.703Z,3.53
2023-05-12T16:49:17.162Z,4.80
2023-05-12T16:54:18.712Z,5.55
2023-05-12T16:59:20.159Z,4.15
2023-05-12T17:04:21.597Z,5.35
2023-05-12T17:09:23.159Z,4.57
2023-05-12T17:14:24.623Z,5.25
2023-05-12T17:19:26.551Z,5.35
2023-05-12T17:24:28.087Z,5.32
2023-05-12T17:29:29.502Z,10.85
2023-05-12T17:34:31.001Z,6.25
2023-05-12T17:39:32.757Z,5.65
2023-05-12T17:44:34.187Z,5.03
2023-05-12T17:49:35.596Z,6.18
2023-05-12T17:54:37.196Z,3.60
2023-05-12T17:59:38.618Z,7.85
2023-05-12T18:04:40.144Z,7.07
2023-05-12T18:09:41.776Z,7.03
2023-05-12T18:14:43.303Z,5.88
2023-05-12T18:19:45.042Z,9.45
2023-05-12T18:24:46.548Z,10.10
2023-05-12T18:29:48.065Z,6.90
2023-05-12T18:34:49.560Z,4.95
2023-05-12T18:39:53.318Z,5.85
2023-05-12T18:44:54.899Z,7.10
2023-05-12T18:49:56.458Z,8.45
2023-05-12T18:54:57.935Z,4.85
2023-05-12T18:59:59.410Z,6.57
2023-05-12T19:05:01.044Z,6.10
2023-05-12T19:10:02.627Z,3.70
2023-05-12T19:15:04.308Z,12.20
2023-05-12T19:20:06.509Z,6.45
2023-05-12T19:25:08.670Z,11.13
2023-05-12T19:30:10.902Z,8.98
2023-05-12T19:35:15.759Z,8.57
2023-05-12T19:40:17.259Z,9.60
2023-05-12T19:45:19.305Z,4.47
2023-05-12T19:50:21.236Z,6.22
2023-05-12T19:55:22.765Z,4.85
2023-05-12T20:00:26.582Z,10.25
2023-05-12T20:05:28.092Z,6.93
2023-05-12T20:10:29.580Z,6.55
2023-05-12T20:15:31.622Z,8.32
2023-05-12T20:20:33.051Z,7.78
2023-05-12T20:25:36.142Z,7.70
2023-05-12T20:30:37.822Z,7.90
2023-05-12T20:35:39.271Z,8.27
2023-05-12T20:40:41.132Z,7.13
2023-05-12T20:45:42.693Z,9.18
2023-05-12T20:50:44.224Z,9.98
2023-05-12T20:55:45.929Z,9.35
2023-05-12T21:00:47.402Z,7.93
2023-05-12T21:05:49.312Z,8.23
2023-05-12T21:10:50.854Z,9.63
2023-05-12T21:15:52.312Z,7.35
2023-05-12T21:20:53.807Z,8.73
2023-05-12T21:25:55.454Z,7.85
2023-05-12T21:30:56.887Z,8.98
2023-05-12T21:35:58.602Z,8.35
2023-05-12T21:41:00.460Z,8.15
2023-05-12T21:46:03.666Z,7.70
2023-05-12T21:51:05.461Z,10.85
2023-05-12T21:56:07.086Z,6.68
2023-05-12T22:01:08.565Z,9.40
2023-05-12T22:06:10.041Z,6.60
2023-05-12T22:11:11.526Z,8.63
2023-05-12T22:16:12.988Z,7.80
2023-05-12T22:21:14.458Z,7.20
2023-05-12T22:26:16.018Z,16.42
2023-05-12T22:31:17.548Z,8.77
2023-05-12T22:36:19.234Z,13.57
2023-05-12T22:41:20.733Z,7.20
2023-05-12T22:46:22.192Z,8.88
2023-05-12T22:51:23.701Z,9.57
2023-05-12T22:56:25.101Z,7.72
2023-05-12T23:01:26.562Z,7.50
2023-05-12T23:06:28.077Z,9.65
2023-05-12T23:11:29.892Z,9.25
2023-05-12T23:16:31.446Z,9.07
2023-05-12T23:21:32.992Z,9.65
2023-05-12T23:26:34.697Z,8.02
2023-05-12T23:31:36.158Z,10.80
2023-05-12T23:36:37.622Z,6.60
2023-05-12T23:41:39.101Z,10.43
2023-05-12T23:46:40.874Z,14.90
2023-05-12T23:51:42.354Z,10.13
2023-05-12T23:56:43.827Z,9.90
